Time;durP1;ratioP1;P1;durP2;ratioP2;P2;SDS_P1;SDS_P2;PMS_P1;PMS_P2;Temp;Humidity;BMP_temperature;BMP_pressure;BME280_temperature;BME280_humidity;BME280_pressure;Samples;Min_cycle;Max_cycle;Signal;HPM_P1;HPM_P2
2022/10/09 00:00:45;;;;;;;14.77;6.20;;;;;;;;;;5028915;28;20025;-66
2022/10/09 00:03:12;;;;;;;17.80;5.80;;;;;;;;;;5029008;28;20067;-66
2022/10/09 00:05:38;;;;;;;13.07;6.30;;;;;;;;;;5028768;28;20044;-66
2022/10/09 00:08:03;;;;;;;15.57;5.97;;;;;;;;;;5028732;28;20037;-66
2022/10/09 00:10:28;;;;;;;19.15;6.95;;;;;;;;;;5028450;28;20033;-66
2022/10/09 00:12:54;;;;;;;12.70;6.47;;;;;;;;;;5027140;28;20088;-66
2022/10/09 00:15:20;;;;;;;19.65;5.80;;;;;;;;;;5053463;28;20029;-66
2022/10/09 00:17:45;;;;;;;15.77;5.63;;;;;;;;;;5068575;28;20395;-66
2022/10/09 00:20:11;;;;;;;10.43;5.10;;;;;;;;;;5068531;28;20067;-66
2022/10/09 00:22:37;;;;;;;11.63;4.88;;;;;;;;;;5068254;28;20040;-66
2022/10/09 00:25:02;;;;;;;11.77;4.88;;;;;;;;;;5066357;28;20175;-66
2022/10/09 00:27:28;;;;;;;9.52;4.40;;;;;;;;;;5068988;28;20056;-66
2022/10/09 00:29:53;;;;;;;12.40;4.47;;;;;;;;;;5067994;28;20137;-66
2022/10/09 00:32:18;;;;;;;10.57;4.90;;;;;;;;;;5068383;28;20032;-66
2022/10/09 00:34:44;;;;;;;12.93;4.55;;;;;;;;;;5067559;28;20398;-66
2022/10/09 00:37:09;;;;;;;9.57;4.32;;;;;;;;;;5068266;28;20040;-66
2022/10/09 00:39:35;;;;;;;14.02;4.03;;;;;;;;;;5059084;28;20156;-66
2022/10/09 00:42:01;;;;;;;7.68;4.38;;;;;;;;;;5028167;28;20056;-66
2022/10/09 00:44:53;;;;;;;10.02;4.70;;;;;;;;;;5027466;28;20033;-66
2022/10/09 00:47:37;;;;;;;10.15;3.92;;;;;;;;;;5029564;28;20051;-66
2022/10/09 00:50:09;;;;;;;8.90;4.50;;;;;;;;;;5047388;28;20036;-67
2022/10/09 00:52:35;;;;;;;11.82;4.10;;;;;;;;;;5047492;28;20576;-65
2022/10/09 00:55:02;;;;;;;12.55;4.68;;;;;;;;;;5041938;28;20041;-66
2022/10/09 00:57:29;;;;;;;11.40;4.55;;;;;;;;;;5048419;28;20083;-66
2022/10/09 00:59:54;;;;;;;8.35;4.32;;;;;;;;;;5047245;28;20029;-66
2022/10/09 01:02:20;;;;;;;10.65;4.28;;;;;;;;;;5047670;28;20036;-66
2022/10/09 01:04:45;;;;;;;8.43;4.03;;;;;;;;;;5047177;28;20033;-66
2022/10/09 01:07:13;;;;;;;9.23;4.85;;;;;;;;;;5029539;28;20063;-66
2022/10/09 01:09:45;;;;;;;10.02;4.10;;;;;;;;;;5046885;28;20033;-66
2022/10/09 01:12:24;;;;;;;12.63;4.13;;;;;;;;;;5047724;28;20056;-66
2022/10/09 01:15:12;;;;;;;7.88;4.20;;;;;;;;;;5046610;28;20087;-66
2022/10/09 01:18:04;;;;;;;9.23;4.05;;;;;;;;;;5037530;28;20190;-66
2022/10/09 01:20:41;;;;;;;12.77;3.92;;;;;;;;;;5047042;28;20473;-66
2022/10/09 01:23:40;;;;;;;8.52;3.70;;;;;;;;;;5048624;28;20037;-66
2022/10/09 01:26:12;;;;;;;7.82;4.03;;;;;;;;;;5049457;28;20036;-66
2022/10/09 01:28:41;;;;;;;11.00;4.38;;;;;;;;;;5066373;28;20032;-66
2022/10/09 01:31:08;;;;;;;9.60;4.05;;;;;;;;;;5066059;28;20052;-66
2022/10/09 01:33:34;;;;;;;10.05;3.50;;;;;;;;;;5067755;28;20024;-66
2022/10/09 01:36:01;;;;;;;9.80;4.18;;;;;;;;;;5067061;28;20413;-66
2022/10/09 01:38:27;;;;;;;8.50;4.15;;;;;;;;;;5063826;28;20048;-66
2022/10/09 01:40:53;;;;;;;7.43;3.88;;;;;;;;;;5027010;28;20034;-66
2022/10/09 01:43:19;;;;;;;10.43;4.10;;;;;;;;;;5026905;28;20062;-66
2022/10/09 01:45:46;;;;;;;8.48;3.88;;;;;;;;;;5008758;28;20398;-66
2022/10/09 01:48:23;;;;;;;7.68;3.78;;;;;;;;;;5027709;28;20056;-66
2022/10/09 01:50:56;;;;;;;10.57;3.90;;;;;;;;;;5008535;28;20037;-66
2022/10/09 01:53:23;;;;;;;8.13;3.08;;;;;;;;;;5026896;28;20033;-66
2022/10/09 01:55:55;;;;;;;8.00;3.55;;;;;;;;;;5026543;28;20042;-66
2022/10/09 01:58:29;;;;;;;8.50;4.10;;;;;;;;;;5034861;28;20086;-66
2022/10/09 02:01:09;;;;;;;8.82;3.40;;;;;;;;;;5046525;28;21177;-66
2022/10/09 02:03:37;;;;;;;6.05;3.45;;;;;;;;;;5046694;28;20055;-66
2022/10/09 02:06:05;;;;;;;8.65;3.67;;;;;;;;;;5046858;28;20037;-66
2022/10/09 02:08:33;;;;;;;8.00;3.63;;;;;;;;;;5046090;28;20517;-66
2022/10/09 02:11:01;;;;;;;6.45;3.50;;;;;;;;;;5046347;28;20032;-66
2022/10/09 02:13:28;;;;;;;6.65;3.67;;;;;;;;;;5046489;28;20471;-66
2022/10/09 02:16:02;;;;;;;7.20;3.70;;;;;;;;;;5045758;28;20028;-66
2022/10/09 02:18:53;;;;;;;10.95;3.75;;;;;;;;;;5025940;28;20040;-66
2022/10/09 02:21:34;;;;;;;8.65;3.53;;;;;;;;;;5046179;28;20047;-66
2022/10/09 02:24:01;;;;;;;8.20;3.40;;;;;;;;;;5038744;28;20029;-66
2022/10/09 02:26:26;;;;;;;8.05;3.50;;;;;;;;;;5046259;28;20029;-66
2022/10/09 02:28:52;;;;;;;9.55;3.70;;;;;;;;;;5051792;28;20591;-66
2022/10/09 02:31:29;;;;;;;9.52;3.45;;;;;;;;;;5026138;28;20103;-66
2022/10/09 02:33:59;;;;;;;10.43;4.10;;;;;;;;;;5025875;28;20025;-66
2022/10/09 02:36:25;;;;;;;7.10;3.45;;;;;;;;;;5026475;28;20432;-65
2022/10/09 02:38:51;;;;;;;6.57;3.70;;;;;;;;;;5029476;28;20121;-66
2022/10/09 02:41:16;;;;;;;7.43;3.58;;;;;;;;;;5045631;28;20033;-66
2022/10/09 02:43:41;;;;;;;7.25;3.85;;;;;;;;;;5054216;28;20069;-66
2022/10/09 02:46:07;;;;;;;14.00;4.03;;;;;;;;;;5052999;28;20056;-66
2022/10/09 02:48:32;;;;;;;7.70;3.97;;;;;;;;;;5066277;28;20027;-66
2022/10/09 02:50:58;;;;;;;7.05;3.70;;;;;;;;;;5065544;28;20115;-66
2022/10/09 02:53:23;;;;;;;8.57;3.28;;;;;;;;;;5066057;28;20036;-66
2022/10/09 02:55:49;;;;;;;10.55;3.90;;;;;;;;;;5030710;28;20040;-66
2022/10/09 02:58:14;;;;;;;10.13;4.07;;;;;;;;;;5045830;28;20033;-66
2022/10/09 03:00:39;;;;;;;8.40;4.20;;;;;;;;;;5045828;28;20542;-66
2022/10/09 03:03:05;;;;;;;8.68;3.63;;;;;;;;;;5044619;28;20015;-66
2022/10/09 03:05:30;;;;;;;8.52;3.95;;;;;;;;;;5045280;28;20410;-66
2022/10/09 03:07:55;;;;;;;11.50;4.38;;;;;;;;;;5046205;28;20049;-66
2022/10/09 03:10:21;;;;;;;7.80;3.70;;;;;;;;;;5045558;28;20522;-66
2022/10/09 03:12:47;;;;;;;7.07;3.70;;;;;;;;;;5045263;28;20157;-66
2022/10/09 03:15:13;;;;;;;8.50;4.25;;;;;;;;;;5028217;28;20025;-66
2022/10/09 03:17:38;;;;;;;11.13;4.35;;;;;;;;;;5045207;28;20075;-66
2022/10/09 03:20:04;;;;;;;8.02;3.80;;;;;;;;;;5045259;28;20040;-66
2022/10/09 03:22:29;;;;;;;9.93;3.97;;;;;;;;;;5045227;28;20525;-66
2022/10/09 03:24:55;;;;;;;10.98;4.82;;;;;;;;;;5045124;28;20045;-66
2022/10/09 03:27:20;;;;;;;9.38;3.53;;;;;;;;;;5045991;28;20017;-66
2022/10/09 03:29:46;;;;;;;6.45;3.55;;;;;;;;;;5023513;28;20040;-66
2022/10/09 03:32:11;;;;;;;10.57;3.75;;;;;;;;;;5027662;28;20025;-66
2022/10/09 03:34:37;;;;;;;9.38;3.47;;;;;;;;;;5029590;28;20037;-66
2022/10/09 03:37:02;;;;;;;11.00;4.05;;;;;;;;;;5029468;28;20039;-66
2022/10/09 03:39:28;;;;;;;8.38;4.15;;;;;;;;;;5046155;28;20025;-66
2022/10/09 03:41:53;;;;;;;10.73;4.10;;;;;;;;;;5049022;28;20039;-66
2022/10/09 03:44:19;;;;;;;10.07;3.72;;;;;;;;;;5049028;28;20033;-66
2022/10/09 03:46:45;;;;;;;11.35;3.50;;;;;;;;;;5049035;28;20035;-66
2022/10/09 03:49:11;;;;;;;12.50;4.57;;;;;;;;;;5048866;28;20124;-66
2022/10/09 03:51:36;;;;;;;6.57;3.33;;;;;;;;;;5047098;28;20104;-65
2022/10/09 03:54:01;;;;;;;8.90;4.00;;;;;;;;;;5039146;28;20151;-65
2022/10/09 03:56:27;;;;;;;10.15;4.45;;;;;;;;;;5027194;28;20037;-66
2022/10/09 03:58:52;;;;;;;11.10;4.60;;;;;;;;;;5029114;28;20742;-66
2022/10/09 04:01:17;;;;;;;8.00;3.65;;;;;;;;;;5049852;28;20024;-66
2022/10/09 04:03:42;;;;;;;8.30;4.22;;;;;;;;;;5069126;28;20020;-66
2022/10/09 04:06:08;;;;;;;8.82;3.88;;;;;;;;;;5069019;28;20027;-66
2022/10/09 04:08:34;;;;;;;9.95;4.32;;;;;;;;;;5050485;28;20059;-66
2022/10/09 04:11:00;;;;;;;14.05;4.20;;;;;;;;;;5068879;28;20517;-66
2022/10/09 04:13:26;;;;;;;12.18;4.38;;;;;;;;;;5055703;28;20110;-66
2022/10/09 04:15:52;;;;;;;11.18;4.10;;;;;;;;;;5048355;28;20491;-66
2022/10/09 04:18:18;;;;;;;10.90;4.18;;;;;;;;;;5049390;28;20024;-66
2022/10/09 04:20:47;;;;;;;12.07;4.30;;;;;;;;;;5048540;28;20422;-66
2022/10/09 04:23:13;;;;;;;9.80;3.75;;;;;;;;;;5047571;28;20040;-66
2022/10/09 04:25:38;;;;;;;23.38;4.43;;;;;;;;;;5030550;28;20033;-66
2022/10/09 04:28:03;;;;;;;7.47;3.78;;;;;;;;;;5048194;28;20041;-66
2022/10/09 04:30:28;;;;;;;8.57;4.22;;;;;;;;;;5048888;28;20048;-66
2022/10/09 04:32:54;;;;;;;8.95;3.78;;;;;;;;;;5029584;28;20033;-66
2022/10/09 04:35:19;;;;;;;11.25;4.72;;;;;;;;;;5048287;28;20067;-66
2022/10/09 04:37:44;;;;;;;10.60;4.55;;;;;;;;;;5047689;28;20434;-66
2022/10/09 04:40:10;;;;;;;12.27;4.13;;;;;;;;;;5047604;28;20599;-66
2022/10/09 04:42:35;;;;;;;10.30;4.05;;;;;;;;;;5047770;28;20056;-65
2022/10/09 04:45:01;;;;;;;8.32;4.18;;;;;;;;;;5048502;28;20017;-66
2022/10/09 04:47:26;;;;;;;13.73;4.63;;;;;;;;;;5047366;28;20029;-66
2022/10/09 04:49:51;;;;;;;11.50;4.53;;;;;;;;;;5030145;28;20124;-66
2022/10/09 04:52:17;;;;;;;10.20;3.95;;;;;;;;;;5030133;28;20529;-65
2022/10/09 04:54:42;;;;;;;9.02;4.50;;;;;;;;;;5046900;28;20133;-66
2022/10/09 04:57:07;;;;;;;10.88;4.43;;;;;;;;;;5048448;28;20074;-66
2022/10/09 04:59:32;;;;;;;12.55;4.00;;;;;;;;;;5047870;28;20132;-66
2022/10/09 05:01:58;;;;;;;8.70;4.35;;;;;;;;;;5044619;28;20033;-66
2022/10/09 05:04:23;;;;;;;7.65;3.90;;;;;;;;;;5047823;28;20510;-66
2022/10/09 05:06:48;;;;;;;13.25;4.20;;;;;;;;;;5047752;28;20024;-66
2022/10/09 05:09:14;;;;;;;11.57;4.38;;;;;;;;;;5047459;28;20040;-66
2022/10/09 05:11:39;;;;;;;9.57;4.00;;;;;;;;;;5046791;28;20082;-65
2022/10/09 05:14:04;;;;;;;15.23;5.20;;;;;;;;;;5047135;28;20041;-66
2022/10/09 05:16:33;;;;;;;13.82;4.80;;;;;;;;;;5047311;28;20506;-66
2022/10/09 05:18:59;;;;;;;8.73;4.25;;;;;;;;;;5047039;28;20490;-66
2022/10/09 05:21:25;;;;;;;12.40;4.53;;;;;;;;;;5048013;28;20025;-66
2022/10/09 05:23:53;;;;;;;12.00;4.18;;;;;;;;;;5057648;28;20095;-66
2022/10/09 05:26:20;;;;;;;12.90;4.50;;;;;;;;;;5049191;28;20104;-66
2022/10/09 05:28:45;;;;;;;12.80;4.32;;;;;;;;;;5048931;28;20028;-66
2022/10/09 05:31:17;;;;;;;19.30;5.43;;;;;;;;;;5067274;28;20033;-66
2022/10/09 05:33:43;;;;;;;17.48;5.75;;;;;;;;;;5066688;28;20024;-66
2022/10/09 05:36:08;;;;;;;18.00;5.43;;;;;;;;;;5048803;28;20052;-66
2022/10/09 05:38:34;;;;;;;18.20;6.00;;;;;;;;;;5065743;28;20043;-66
2022/10/09 05:41:02;;;;;;;20.23;6.70;;;;;;;;;;5046881;28;20589;-66
2022/10/09 05:43:30;;;;;;;16.08;6.82;;;;;;;;;;5048027;28;20048;-66
2022/10/09 05:46:13;;;;;;;17.35;6.82;;;;;;;;;;5026920;28;20116;-66
2022/10/09 05:48:41;;;;;;;22.52;6.80;;;;;;;;;;5026811;28;20025;-66
2022/10/09 05:51:18;;;;;;;23.25;6.95;;;;;;;;;;5025734;28;20051;-66
2022/10/09 05:53:45;;;;;;;18.88;6.40;;;;;;;;;;5057699;28;20036;-66
2022/10/09 05:56:37;;;;;;;23.00;5.28;;;;;;;;;;5066232;28;20506;-66
2022/10/09 05:59:03;;;;;;;14.02;4.75;;;;;;;;;;5060705;28;20040;-66
2022/10/09 06:01:32;;;;;;;12.48;4.85;;;;;;;;;;5064860;28;20033;-66
2022/10/09 06:03:59;;;;;;;16.15;4.90;;;;;;;;;;5065973;28;20040;-66
2022/10/09 06:06:27;;;;;;;19.63;4.75;;;;;;;;;;5065073;28;20402;-66
2022/10/09 06:08:53;;;;;;;18.00;5.20;;;;;;;;;;5025488;28;20092;-65
2022/10/09 06:11:27;;;;;;;15.95;4.47;;;;;;;;;;5024800;28;20034;-66
2022/10/09 06:13:54;;;;;;;10.80;4.10;;;;;;;;;;5028231;28;20069;-66
2022/10/09 06:16:23;;;;;;;12.50;4.90;;;;;;;;;;5041667;28;20055;-66
2022/10/09 06:18:49;;;;;;;19.65;4.43;;;;;;;;;;5046316;28;20033;-66
2022/10/09 06:21:15;;;;;;;16.95;5.70;;;;;;;;;;5046163;28;20039;-66
2022/10/09 06:23:41;;;;;;;17.75;6.00;;;;;;;;;;5035267;28;20171;-66
2022/10/09 06:26:09;;;;;;;15.07;5.75;;;;;;;;;;5025879;28;20034;-66
2022/10/09 06:28:35;;;;;;;18.92;5.60;;;;;;;;;;5025743;28;20042;-66
2022/10/09 06:31:19;;;;;;;15.43;5.05;;;;;;;;;;5025672;28;20041;-66
2022/10/09 06:33:45;;;;;;;;;;;;;;;;;;5037543;28;20029;-66
2022/10/09 06:36:16;;;;;;;12.65;5.38;;;;;;;;;;5030056;28;19909;-66
2022/10/09 06:38:42;;;;;;;15.10;5.65;;;;;;;;;;5025210;28;20045;-66
2022/10/09 06:41:10;;;;;;;15.05;5.18;;;;;;;;;;5044714;28;20059;-66
2022/10/09 06:43:35;;;;;;;13.68;5.13;;;;;;;;;;5026428;28;20037;-66
2022/10/09 06:46:02;;;;;;;10.60;5.10;;;;;;;;;;5026748;28;20037;-66
2022/10/09 06:48:32;;;;;;;17.17;5.70;;;;;;;;;;5042417;28;20029;-66
2022/10/09 06:51:05;;;;;;;12.57;5.07;;;;;;;;;;5031853;28;20052;-66
2022/10/09 06:53:39;;;;;;;13.60;5.35;;;;;;;;;;5042923;28;20045;-66
2022/10/09 06:56:05;;;;;;;15.32;5.78;;;;;;;;;;5031889;28;20033;-66
2022/10/09 06:58:31;;;;;;;17.20;5.18;;;;;;;;;;5037135;28;20041;-66
2022/10/09 07:01:06;;;;;;;15.80;5.68;;;;;;;;;;5033057;28;20033;-66
2022/10/09 07:03:33;;;;;;;14.45;6.10;;;;;;;;;;5043899;28;20029;-66
2022/10/09 07:06:19;;;;;;;14.52;6.03;;;;;;;;;;5049195;28;20040;-66
2022/10/09 07:08:48;;;;;;;14.75;5.40;;;;;;;;;;5046655;28;20040;-66
2022/10/09 07:11:21;;;;;;;14.20;5.65;;;;;;;;;;5043501;28;20033;-66
2022/10/09 07:13:49;;;;;;;13.35;5.22;;;;;;;;;;5049022;28;20082;-66
2022/10/09 07:16:28;;;;;;;12.27;5.10;;;;;;;;;;5047426;28;20037;-66
2022/10/09 07:18:54;;;;;;;12.55;5.70;;;;;;;;;;5048388;28;20772;-66
2022/10/09 07:21:20;;;;;;;13.55;5.53;;;;;;;;;;5049738;28;20057;-66
2022/10/09 07:23:46;;;;;;;15.85;5.45;;;;;;;;;;5045756;28;20450;-66
2022/10/09 07:26:17;;;;;;;15.32;5.38;;;;;;;;;;5031173;28;20036;-66
2022/10/09 07:28:44;;;;;;;12.40;4.85;;;;;;;;;;5047503;28;20573;-66
2022/10/09 07:31:09;;;;;;;11.73;4.78;;;;;;;;;;5030455;28;20037;-66
2022/10/09 07:33:35;;;;;;;11.88;4.47;;;;;;;;;;5026993;28;20028;-66
2022/10/09 07:36:01;;;;;;;9.85;4.18;;;;;;;;;;5036589;28;20056;-66
2022/10/09 07:38:28;;;;;;;11.60;5.22;;;;;;;;;;5047114;28;20029;-65
2022/10/09 07:40:58;;;;;;;16.58;5.22;;;;;;;;;;5032035;28;20141;-66
2022/10/09 07:43:23;;;;;;;13.77;5.00;;;;;;;;;;5038943;28;20029;-66
2022/10/09 07:45:48;;;;;;;13.73;5.28;;;;;;;;;;5031888;28;20067;-66
2022/10/09 07:48:14;;;;;;;15.82;4.97;;;;;;;;;;5010113;28;20075;-66
2022/10/09 07:50:39;;;;;;;13.70;4.90;;;;;;;;;;5033850;28;20068;-66
2022/10/09 07:53:04;;;;;;;7.78;3.95;;;;;;;;;;5035201;28;20033;-66
2022/10/09 07:55:30;;;;;;;10.38;4.70;;;;;;;;;;5038995;28;20049;-66
2022/10/09 07:57:55;;;;;;;9.73;4.03;;;;;;;;;;5035540;28;20141;-65
2022/10/09 08:00:20;;;;;;;11.52;4.28;;;;;;;;;;5043089;28;20025;-66
2022/10/09 08:02:45;;;;;;;10.35;4.10;;;;;;;;;;5046324;28;20025;-66
2022/10/09 08:05:11;;;;;;;11.68;4.20;;;;;;;;;;5040965;28;20590;-66
2022/10/09 08:07:36;;;;;;;10.20;4.63;;;;;;;;;;5045232;28;20108;-66
2022/10/09 08:10:03;;;;;;;10.55;4.65;;;;;;;;;;5018667;28;20048;-66
2022/10/09 08:12:28;;;;;;;10.75;3.90;;;;;;;;;;5043858;28;20048;-66
2022/10/09 08:14:53;;;;;;;10.50;3.83;;;;;;;;;;5023169;28;20059;-66
2022/10/09 08:17:19;;;;;;;6.45;3.30;;;;;;;;;;5038755;28;20540;-66
2022/10/09 08:19:44;;;;;;;10.23;3.72;;;;;;;;;;5031189;28;20030;-66
2022/10/09 08:22:10;;;;;;;11.20;3.70;;;;;;;;;;5010720;28;20048;-66
2022/10/09 08:24:36;;;;;;;6.20;3.42;;;;;;;;;;5026726;28;20020;-65
2022/10/09 08:27:02;;;;;;;5.30;2.90;;;;;;;;;;5028621;28;20025;-66
2022/10/09 08:29:28;;;;;;;6.35;3.47;;;;;;;;;;5023092;28;20036;-65
2022/10/09 08:31:53;;;;;;;4.93;3.10;;;;;;;;;;5045732;28;20683;-66
2022/10/09 08:34:19;;;;;;;4.55;2.63;;;;;;;;;;5047258;28;20044;-66
2022/10/09 08:36:44;;;;;;;4.60;2.53;;;;;;;;;;5029593;28;20207;-66
2022/10/09 08:39:09;;;;;;;7.25;2.67;;;;;;;;;;5043998;28;20051;-66
2022/10/09 08:41:40;;;;;;;7.75;3.17;;;;;;;;;;5043773;28;20187;-66
2022/10/09 08:44:30;;;;;;;4.68;2.65;;;;;;;;;;5048397;28;20098;-66
2022/10/09 08:47:37;;;;;;;7.47;2.70;;;;;;;;;;5041069;28;20037;-65
2022/10/09 08:50:10;;;;;;;6.15;2.70;;;;;;;;;;5025393;28;20037;-66
2022/10/09 08:52:40;;;;;;;5.57;2.90;;;;;;;;;;5033724;28;20048;-66
2022/10/09 08:55:15;;;;;;;5.43;2.60;;;;;;;;;;5038753;28;20863;-66
2022/10/09 08:57:42;;;;;;;6.97;2.90;;;;;;;;;;5036299;28;20047;-66
2022/10/09 09:00:19;;;;;;;5.32;2.88;;;;;;;;;;5046549;28;20143;-67
2022/10/09 09:03:02;;;;;;;5.35;2.58;;;;;;;;;;5045822;28;20979;-67
2022/10/09 09:06:12;;;;;;;5.38;2.53;;;;;;;;;;5028786;28;20051;-67
2022/10/09 09:08:46;;;;;;;3.15;2.22;;;;;;;;;;4964747;28;20699;-67
2022/10/09 09:11:14;;;;;;;6.28;2.35;;;;;;;;;;4964782;28;20298;-67
2022/10/09 09:13:58;;;;;;;5.18;2.50;;;;;;;;;;5011901;28;20052;-67
2022/10/09 09:16:50;;;;;;;5.70;2.75;;;;;;;;;;5042381;28;20132;-66
2022/10/09 09:19:34;;;;;;;4.78;2.60;;;;;;;;;;5035414;28;20701;-67
2022/10/09 09:21:59;;;;;;;8.02;2.80;;;;;;;;;;5038914;28;20541;-67
2022/10/09 09:24:50;;;;;;;6.93;2.55;;;;;;;;;;5043155;28;20532;-67
2022/10/09 09:27:19;;;;;;;8.98;2.20;;;;;;;;;;5047455;28;20064;-66
2022/10/09 09:29:56;;;;;;;6.70;2.47;;;;;;;;;;5039251;28;20033;-66
2022/10/09 09:32:25;;;;;;;2.08;1.55;;;;;;;;;;5024864;28;20128;-66
2022/10/09 09:34:55;;;;;;;4.43;2.45;;;;;;;;;;5046726;28;20545;-66
2022/10/09 09:37:22;;;;;;;3.58;2.28;;;;;;;;;;5043808;28;20049;-67
2022/10/09 09:39:47;;;;;;;8.15;2.63;;;;;;;;;;5038926;28;20056;-66
2022/10/09 09:42:16;;;;;;;4.47;2.35;;;;;;;;;;5051029;28;20056;-66
2022/10/09 09:44:58;;;;;;;3.53;2.17;;;;;;;;;;5046983;28;20045;-67
2022/10/09 09:47:56;;;;;;;4.55;2.15;;;;;;;;;;5036028;28;20066;-66
2022/10/09 09:50:50;;;;;;;7.45;3.00;;;;;;;;;;5018828;28;20048;-66
2022/10/09 09:53:27;;;;;;;7.35;2.70;;;;;;;;;;5025201;28;20126;-66
2022/10/09 09:55:54;;;;;;;7.18;2.65;;;;;;;;;;5028680;28;20700;-66
2022/10/09 09:58:20;;;;;;;6.72;2.70;;;;;;;;;;5026748;28;20533;-66
2022/10/09 10:00:59;;;;;;;6.75;3.03;;;;;;;;;;5027065;28;20037;-67
2022/10/09 10:03:25;;;;;;;10.43;2.50;;;;;;;;;;5028222;28;20029;-66
2022/10/09 10:05:51;;;;;;;3.33;2.60;;;;;;;;;;5036646;28;20418;-66
2022/10/09 10:08:27;;;;;;;7.15;2.50;;;;;;;;;;5028592;28;20151;-66
2022/10/09 10:11:05;;;;;;;4.60;2.70;;;;;;;;;;5028932;28;20041;-67
2022/10/09 10:13:47;;;;;;;4.35;2.17;;;;;;;;;;5043359;28;20044;-67
2022/10/09 10:16:22;;;;;;;4.18;2.40;;;;;;;;;;5046413;28;20076;-66
2022/10/09 10:18:48;;;;;;;7.78;2.95;;;;;;;;;;5046555;28;20537;-67
2022/10/09 10:21:16;;;;;;;6.43;2.65;;;;;;;;;;5046555;28;20058;-67
2022/10/09 10:24:12;;;;;;;3.35;2.13;;;;;;;;;;5045896;28;20141;-67
2022/10/09 10:26:50;;;;;;;7.25;2.75;;;;;;;;;;5037830;28;20068;-67
2022/10/09 10:29:24;;;;;;;8.95;2.60;;;;;;;;;;5046169;28;20041;-67
2022/10/09 10:32:07;;;;;;;7.05;2.15;;;;;;;;;;5028175;28;20041;-67
2022/10/09 10:34:59;;;;;;;4.47;2.03;;;;;;;;;;5045868;28;20047;-67
2022/10/09 10:37:45;;;;;;;4.53;2.20;;;;;;;;;;5030959;28;20055;-67
2022/10/09 10:40:16;;;;;;;5.32;2.45;;;;;;;;;;5045291;28;20532;-67
2022/10/09 10:42:50;;;;;;;5.63;1.88;;;;;;;;;;5045728;28;20028;-67
2022/10/09 10:45:21;;;;;;;4.20;2.10;;;;;;;;;;5045694;28;20104;-67
2022/10/09 10:47:53;;;;;;;4.68;2.72;;;;;;;;;;5046214;28;20501;-67
2022/10/09 10:50:20;;;;;;;3.23;2.37;;;;;;;;;;5028041;28;20505;-67
2022/10/09 10:52:57;;;;;;;5.60;2.35;;;;;;;;;;5027857;28;20102;-67
2022/10/09 10:55:41;;;;;;;6.60;2.53;;;;;;;;;;5045975;28;20037;-67
2022/10/09 10:58:24;;;;;;;6.07;2.25;;;;;;;;;;5045698;28;20033;-67
2022/10/09 11:00:57;;;;;;;9.90;2.40;;;;;;;;;;5045516;28;20588;-67
2022/10/09 11:03:28;;;;;;;3.35;1.52;;;;;;;;;;5046000;28;20021;-67
2022/10/09 11:06:15;;;;;;;4.05;1.90;;;;;;;;;;5045417;28;20033;-67
2022/10/09 11:08:46;;;;;;;3.03;1.20;;;;;;;;;;5045437;28;20048;-68
2022/10/09 11:11:26;;;;;;;4.28;2.40;;;;;;;;;;5044837;28;20045;-68
2022/10/09 11:13:59;;;;;;;4.07;2.00;;;;;;;;;;5045874;28;20807;-67
2022/10/09 11:16:31;;;;;;;2.60;1.60;;;;;;;;;;5028253;28;20127;-67
2022/10/09 11:19:06;;;;;;;3.45;1.83;;;;;;;;;;5045633;28;20048;-67
2022/10/09 11:21:42;;;;;;;3.88;2.10;;;;;;;;;;5045446;28;20464;-67
2022/10/09 11:24:26;;;;;;;6.47;2.05;;;;;;;;;;5027625;28;20052;-67
2022/10/09 11:27:10;;;;;;;4.60;1.70;;;;;;;;;;5027968;28;20068;-67
2022/10/09 11:29:41;;;;;;;3.83;2.08;;;;;;;;;;5046240;28;20033;-67
2022/10/09 11:32:30;;;;;;;4.05;2.03;;;;;;;;;;5046282;28;20032;-67
2022/10/09 11:35:11;;;;;;;3.22;1.50;;;;;;;;;;5065557;28;20032;-67
2022/10/09 11:37:40;;;;;;;2.63;1.58;;;;;;;;;;5065422;28;20082;-67
2022/10/09 11:40:25;;;;;;;5.88;1.90;;;;;;;;;;5052113;28;20047;-67
2022/10/09 11:43:02;;;;;;;6.70;2.00;;;;;;;;;;5044572;28;20033;-67
2022/10/09 11:45:42;;;;;;;3.92;1.20;;;;;;;;;;5045767;28;20037;-68
2022/10/09 11:48:17;;;;;;;4.00;1.50;;;;;;;;;;5045446;28;20045;-67
2022/10/09 11:50:45;;;;;;;7.45;1.42;;;;;;;;;;5045534;28;20040;-67
2022/10/09 11:53:16;;;;;;;2.92;1.50;;;;;;;;;;5029501;28;20047;-67
2022/10/09 11:55:42;;;;;;;2.78;1.63;;;;;;;;;;5068752;28;20414;-67
2022/10/09 11:58:24;;;;;;;4.07;1.55;;;;;;;;;;5069308;28;20036;-67
2022/10/09 12:00:52;;;;;;;3.15;1.42;;;;;;;;;;5050729;28;20033;-67
2022/10/09 12:03:34;;;;;;;4.20;1.63;;;;;;;;;;5069572;28;20114;-67
2022/10/09 12:06:04;;;;;;;2.40;1.40;;;;;;;;;;5055911;28;20507;-67
2022/10/09 12:08:29;;;;;;;2.92;1.42;;;;;;;;;;5044748;28;20123;-67
2022/10/09 12:10:59;;;;;;;3.83;1.50;;;;;;;;;;5048536;28;20255;-67
2022/10/09 12:13:37;;;;;;;3.78;1.60;;;;;;;;;;5048363;28;20037;-67
2022/10/09 12:16:04;;;;;;;2.35;1.25;;;;;;;;;;5034399;28;20124;-67
2022/10/09 12:18:44;;;;;;;3.72;1.60;;;;;;;;;;5057561;28;20142;-67
2022/10/09 12:21:29;;;;;;;3.58;1.42;;;;;;;;;;5068369;28;20037;-67
2022/10/09 12:23:55;;;;;;;2.83;1.50;;;;;;;;;;5051370;28;20029;-67
2022/10/09 12:26:23;;;;;;;2.67;1.58;;;;;;;;;;5048825;28;20040;-67
2022/10/09 12:28:52;;;;;;;2.58;1.45;;;;;;;;;;5029811;28;20045;-67
2022/10/09 12:31:26;;;;;;;3.40;1.50;;;;;;;;;;5048066;28;20049;-67
2022/10/09 12:33:56;;;;;;;3.05;1.60;;;;;;;;;;5048237;28;20063;-67
2022/10/09 12:36:27;;;;;;;3.67;1.55;;;;;;;;;;5045683;28;20053;-67
2022/10/09 12:38:52;;;;;;;3.55;1.48;;;;;;;;;;5023869;28;20036;-67
2022/10/09 12:41:28;;;;;;;3.03;1.67;;;;;;;;;;5048321;28;20215;-67
2022/10/09 12:43:55;;;;;;;3.22;1.77;;;;;;;;;;5047813;28;20706;-67
2022/10/09 12:46:33;;;;;;;1.75;1.30;;;;;;;;;;5048232;28;20099;-67
2022/10/09 12:49:00;;;;;;;3.88;1.52;;;;;;;;;;5046341;28;20115;-67
2022/10/09 12:51:28;;;;;;;6.30;1.80;;;;;;;;;;5046338;28;20033;-67
2022/10/09 12:53:54;;;;;;;2.80;1.73;;;;;;;;;;5047813;28;20117;-67
2022/10/09 12:56:24;;;;;;;2.67;1.50;;;;;;;;;;5046614;28;20521;-67
2022/10/09 12:58:50;;;;;;;3.45;1.90;;;;;;;;;;5043921;28;20757;-67
2022/10/09 13:01:16;;;;;;;4.25;1.70;;;;;;;;;;5029769;28;20529;-67
2022/10/09 13:03:51;;;;;;;5.78;1.67;;;;;;;;;;5046961;28;20074;-67
2022/10/09 13:06:20;;;;;;;4.32;1.55;;;;;;;;;;5048541;28;20017;-67
2022/10/09 13:08:54;;;;;;;5.82;1.70;;;;;;;;;;5047831;28;20029;-67
2022/10/09 13:11:30;;;;;;;4.40;1.55;;;;;;;;;;5047449;28;20127;-67
2022/10/09 13:13:55;;;;;;;6.18;1.63;;;;;;;;;;5043287;28;20087;-67
2022/10/09 13:16:22;;;;;;;3.83;1.40;;;;;;;;;;5042874;28;20766;-67
2022/10/09 13:18:59;;;;;;;2.35;1.20;;;;;;;;;;5047637;28;20032;-67
2022/10/09 13:21:32;;;;;;;2.45;1.20;;;;;;;;;;5029715;28;20013;-67
2022/10/09 13:24:12;;;;;;;7.22;1.50;;;;;;;;;;5033529;28;20037;-67
2022/10/09 13:26:39;;;;;;;3.72;1.48;;;;;;;;;;5027086;28;20057;-67
2022/10/09 13:29:06;;;;;;;3.95;1.50;;;;;;;;;;5027191;28;20049;-67
2022/10/09 13:31:32;;;;;;;5.88;2.17;;;;;;;;;;5026878;28;20763;-67
2022/10/09 13:34:04;;;;;;;3.10;1.48;;;;;;;;;;5025768;28;20026;-67
2022/10/09 13:36:29;;;;;;;2.40;1.38;;;;;;;;;;5027322;28;20056;-67
2022/10/09 13:38:55;;;;;;;4.97;1.67;;;;;;;;;;5030616;28;20159;-67
2022/10/09 13:41:23;;;;;;;5.90;1.33;;;;;;;;;;5027315;28;20475;-67
2022/10/09 13:43:50;;;;;;;1.90;1.35;;;;;;;;;;5039828;28;20029;-67
2022/10/09 13:46:15;;;;;;;5.10;1.60;;;;;;;;;;5046449;28;20040;-68
2022/10/09 13:48:41;;;;;;;4.10;1.55;;;;;;;;;;5046600;28;20448;-67
2022/10/09 13:51:07;;;;;;;4.53;1.58;;;;;;;;;;5047253;28;20035;-67
2022/10/09 13:53:33;;;;;;;3.47;1.33;;;;;;;;;;5028187;28;20060;-67
2022/10/09 13:55:58;;;;;;;2.92;1.50;;;;;;;;;;5046296;28;20037;-67
2022/10/09 13:58:24;;;;;;;2.95;1.60;;;;;;;;;;5045035;28;20410;-67
2022/10/09 14:00:49;;;;;;;3.28;1.75;;;;;;;;;;5047058;28;20079;-67
2022/10/09 14:03:17;;;;;;;4.95;1.70;;;;;;;;;;5046855;28;20029;-67
2022/10/09 14:05:43;;;;;;;3.92;1.45;;;;;;;;;;5046791;28;20112;-67
2022/10/09 14:08:09;;;;;;;4.65;1.58;;;;;;;;;;5046279;28;20691;-67
2022/10/09 14:10:34;;;;;;;3.72;1.45;;;;;;;;;;5046914;28;20036;-67
2022/10/09 14:12:59;;;;;;;2.17;1.40;;;;;;;;;;5046283;28;20048;-67
2022/10/09 14:15:25;;;;;;;3.72;1.38;;;;;;;;;;5043084;28;20017;-67
2022/10/09 14:17:50;;;;;;;2.95;1.70;;;;;;;;;;5044610;28;20037;-67
2022/10/09 14:20:16;;;;;;;2.25;1.48;;;;;;;;;;5046376;28;20490;-67
2022/10/09 14:22:41;;;;;;;2.50;1.42;;;;;;;;;;5046119;28;20442;-65
2022/10/09 14:25:07;;;;;;;3.33;1.40;;;;;;;;;;5064190;28;20106;-65
2022/10/09 14:27:32;;;;;;;3.33;1.40;;;;;;;;;;5066990;28;20051;-65
2022/10/09 14:29:58;;;;;;;1.95;1.30;;;;;;;;;;5065774;28;20405;-65
2022/10/09 14:32:23;;;;;;;3.67;1.15;;;;;;;;;;5065997;28;20506;-65
2022/10/09 14:34:49;;;;;;;1.95;1.08;;;;;;;;;;5066012;28;20032;-65
2022/10/09 14:37:14;;;;;;;3.40;1.40;;;;;;;;;;5053628;28;20032;-65
2022/10/09 14:39:42;;;;;;;3.28;1.15;;;;;;;;;;5047904;28;20116;-65
2022/10/09 14:42:07;;;;;;;2.15;1.40;;;;;;;;;;5046403;28;20514;-65
2022/10/09 14:44:33;;;;;;;3.15;1.70;;;;;;;;;;5046322;28;20025;-65
2022/10/09 14:46:58;;;;;;;2.17;1.30;;;;;;;;;;5045966;28;20090;-65
2022/10/09 14:49:23;;;;;;;2.97;1.35;;;;;;;;;;5045873;28;20063;-64
2022/10/09 14:51:49;;;;;;;2.15;1.40;;;;;;;;;;5044567;28;20033;-64
2022/10/09 14:54:14;;;;;;;2.08;1.10;;;;;;;;;;5040426;28;20041;-64